createdAt,value
2023-02-09T00:06:36.907Z,102200.06
2023-02-09T00:16:39.945Z,102193.22
2023-02-09T00:26:42.874Z,102194.28
2023-02-09T00:36:45.265Z,102189.19
2023-02-09T00:46:48.945Z,102172.69
2023-02-09T00:56:51.202Z,102169.91
2023-02-09T01:06:53.585Z,102170.13
2023-02-09T01:16:56.241Z,102165.09
2023-02-09T01:27:01.386Z,102150.66
2023-02-09T01:37:03.808Z,102145.78
2023-02-09T01:47:06.227Z,102146.69
2023-02-09T01:57:12.396Z,102126.28
2023-02-09T02:07:22.302Z,102125.00
2023-02-09T02:17:43.213Z,102126.88
2023-02-09T02:28:39.124Z,102118.16
2023-02-09T02:38:54.546Z,102106.91
2023-02-09T02:48:59.538Z,102113.91
2023-02-09T02:59:03.971Z,102110.72
2023-02-09T03:09:06.641Z,102102.56
2023-02-09T03:19:37.028Z,102102.44
2023-02-09T03:29:39.965Z,102090.44
2023-02-09T03:39:42.335Z,102090.31
2023-02-09T03:49:45.481Z,102090.97
2023-02-09T03:59:47.804Z,102089.69
2023-02-09T04:09:50.157Z,102076.91
2023-02-09T04:19:52.508Z,102071.38
2023-02-09T04:29:54.883Z,102053.91
2023-02-09T04:39:57.056Z,102052.88
2023-02-09T04:50:00.396Z,102044.56
2023-02-09T05:00:03.173Z,102042.00
2023-02-09T05:10:05.731Z,102041.59
2023-02-09T05:20:08.655Z,102028.81
2023-02-09T05:30:11.274Z,102039.59
2023-02-09T05:40:14.041Z,102034.44
2023-02-09T05:50:16.766Z,102045.16
2023-02-09T06:00:23.738Z,102033.03
2023-02-09T06:10:25.823Z,102026.88
2023-02-09T06:20:27.965Z,102030.19
2023-02-09T06:30:30.065Z,102037.09
2023-02-09T06:40:32.442Z,102066.66
2023-02-09T06:50:36.527Z,102076.81
2023-02-09T07:00:39.788Z,102086.25
2023-02-09T07:10:41.859Z,102097.25
2023-02-09T07:20:44.190Z,102092.63
2023-02-09T07:30:51.917Z,102085.63
2023-02-09T07:40:54.086Z,102077.34
2023-02-09T07:50:56.229Z,102072.41
2023-02-09T08:01:04.366Z,102084.22
2023-02-09T08:11:06.849Z,102089.41
2023-02-09T08:21:11.840Z,102067.84
2023-02-09T08:31:18.745Z,102095.16
2023-02-09T08:41:21.986Z,102105.28
2023-02-09T08:51:24.082Z,102114.44
2023-02-09T09:01:26.332Z,102125.44
2023-02-09T09:11:29.929Z,102139.66
2023-02-09T09:21:33.284Z,102137.50
2023-02-09T09:31:35.589Z,102148.66
2023-02-09T09:41:38.520Z,102153.47
2023-02-09T09:51:43.320Z,102140.88
2023-02-09T10:01:45.891Z,102148.16
2023-02-09T10:12:06.685Z,102139.00
2023-02-09T10:22:13.634Z,102154.81
2023-02-09T10:32:29.484Z,102126.81
2023-02-09T10:42:33.878Z,102126.09
2023-02-09T10:52:40.110Z,102117.38
2023-02-09T11:02:48.415Z,102108.44
2023-02-09T11:12:50.471Z,102102.03
2023-02-09T11:23:04.851Z,102099.97
2023-02-09T11:33:27.756Z,102088.16
2023-02-09T11:43:37.092Z,102094.91
2023-02-09T11:53:47.799Z,102069.00
2023-02-09T12:04:03.022Z,102041.63
2023-02-09T12:14:28.868Z,102038.41
2023-02-09T12:24:38.382Z,102064.63
2023-02-09T12:34:49.553Z,102053.63
2023-02-09T12:44:54.616Z,102047.84
2023-02-09T12:54:57.011Z,102060.81
2023-02-09T13:05:04.242Z,102063.78
2023-02-09T13:15:13.733Z,102050.34
2023-02-09T13:25:34.309Z,102032.28
2023-02-09T13:35:57.437Z,102030.81
2023-02-09T13:46:00.478Z,102030.84
2023-02-09T13:56:02.890Z,102023.09
2023-02-09T14:06:21.002Z,102048.97
2023-02-09T14:16:24.524Z,102040.25
2023-02-09T14:26:29.001Z,102038.09
2023-02-09T14:36:34.333Z,102059.78
2023-02-09T14:46:47.473Z,102057.06
2023-02-09T14:56:50.732Z,102047.78
2023-02-09T15:07:02.199Z,102060.34
2023-02-09T15:17:12.365Z,102060.59
2023-02-09T15:27:27.409Z,102066.28
2023-02-09T15:37:34.748Z,102069.09
2023-02-09T15:47:49.111Z,102073.97
2023-02-09T15:57:53.123Z,102075.75
2023-02-09T16:07:56.516Z,102109.56
2023-02-09T16:17:59.109Z,102118.63
2023-02-09T16:28:01.900Z,102130.53
2023-02-09T16:38:15.425Z,102163.69
2023-02-09T16:48:21.719Z,102172.16
2023-02-09T16:58:23.878Z,102196.75
2023-02-09T17:08:32.134Z,102200.41
2023-02-09T17:18:39.744Z,102217.16
2023-02-09T17:28:43.118Z,102222.22
2023-02-09T17:38:45.491Z,102212.59
2023-02-09T17:48:49.332Z,102232.22
2023-02-09T17:58:51.516Z,102230.75
2023-02-09T18:08:53.907Z,102230.09
2023-02-09T18:18:56.312Z,102236.31
2023-02-09T18:28:58.718Z,102235.22
2023-02-09T18:39:01.168Z,102247.38
2023-02-09T18:49:03.914Z,102259.53
2023-02-09T18:59:06.070Z,102268.22
2023-02-09T19:09:08.419Z,102284.25
2023-02-09T19:19:13.301Z,102292.44
2023-02-09T19:29:16.126Z,102287.06
2023-02-09T19:39:19.166Z,102301.75
2023-02-09T19:49:22.889Z,102307.22
2023-02-09T19:59:25.364Z,102316.56
2023-02-09T20:09:28.650Z,102314.22
2023-02-09T20:19:31.105Z,102326.00
2023-02-09T20:29:34.173Z,102343.88
2023-02-09T20:39:36.363Z,102339.16
2023-02-09T20:49:40.455Z,102338.88
2023-02-09T20:59:42.654Z,102336.31
2023-02-09T21:09:44.962Z,102336.09
2023-02-09T21:19:47.367Z,102332.13
2023-02-09T21:29:49.791Z,102319.59
2023-02-09T21:39:52.009Z,102329.13
2023-02-09T21:49:54.402Z,102330.34
2023-02-09T21:59:56.873Z,102327.84
2023-02-09T22:09:59.130Z,102329.44
2023-02-09T22:20:01.550Z,102320.25
2023-02-09T22:30:04.186Z,102339.91
2023-02-09T22:40:06.727Z,102339.63
2023-02-09T22:50:09.423Z,102358.34
2023-02-09T23:00:13.869Z,102359.97
2023-02-09T23:10:17.102Z,102361.22
2023-02-09T23:20:19.469Z,102355.44
2023-02-09T23:30:21.770Z,102379.81
2023-02-09T23:40:23.852Z,102386.53
2023-02-09T23:50:26.301Z,102409.22
